sensor_id;sensor_type;location;lat;lon;timestamp;P1;durP1;ratioP1;P2;durP2;ratioP2
75016;SDS011;63577;39.766;2.720;2023-04-08T00:01:25;3.20;;;1.00;;
75016;SDS011;63577;39.766;2.720;2023-04-08T00:03:51;3.70;;;0.80;;
75016;SDS011;63577;39.766;2.720;2023-04-08T00:06:16;3.00;;;1.10;;
75016;SDS011;63577;39.766;2.720;2023-04-08T00:08:42;3.60;;;0.90;;
75016;SDS011;63577;39.766;2.720;2023-04-08T00:11:07;2.30;;;0.80;;
75016;SDS011;63577;39.766;2.720;2023-04-08T00:13:33;3.70;;;0.90;;
75016;SDS011;63577;39.766;2.720;2023-04-08T00:15:58;3.80;;;0.80;;
75016;SDS011;63577;39.766;2.720;2023-04-08T00:18:23;2.40;;;0.80;;
75016;SDS011;63577;39.766;2.720;2023-04-08T00:20:49;2.70;;;0.90;;
75016;SDS011;63577;39.766;2.720;2023-04-08T00:23:14;2.70;;;0.70;;
75016;SDS011;63577;39.766;2.720;2023-04-08T00:25:40;3.40;;;1.00;;
75016;SDS011;63577;39.766;2.720;2023-04-08T00:28:05;3.10;;;1.00;;
75016;SDS011;63577;39.766;2.720;2023-04-08T00:30:31;3.30;;;1.00;;
75016;SDS011;63577;39.766;2.720;2023-04-08T00:32:57;2.90;;;0.80;;
75016;SDS011;63577;39.766;2.720;2023-04-08T00:35:22;2.60;;;0.90;;
75016;SDS011;63577;39.766;2.720;2023-04-08T00:37:48;2.60;;;0.90;;
75016;SDS011;63577;39.766;2.720;2023-04-08T00:40:14;3.40;;;1.00;;
75016;SDS011;63577;39.766;2.720;2023-04-08T00:42:39;2.90;;;1.00;;
75016;SDS011;63577;39.766;2.720;2023-04-08T00:45:04;3.10;;;0.90;;
75016;SDS011;63577;39.766;2.720;2023-04-08T00:47:30;2.90;;;1.00;;
75016;SDS011;63577;39.766;2.720;2023-04-08T00:49:55;3.00;;;0.90;;
75016;SDS011;63577;39.766;2.720;2023-04-08T00:52:21;3.20;;;0.90;;
75016;SDS011;63577;39.766;2.720;2023-04-08T00:54:47;3.00;;;1.10;;
75016;SDS011;63577;39.766;2.720;2023-04-08T00:57:12;3.10;;;1.10;;
75016;SDS011;63577;39.766;2.720;2023-04-08T00:59:37;3.00;;;1.10;;
75016;SDS011;63577;39.766;2.720;2023-04-08T01:05:01;2.70;;;0.90;;
75016;SDS011;63577;39.766;2.720;2023-04-08T01:07:29;2.90;;;0.80;;
75016;SDS011;63577;39.766;2.720;2023-04-08T01:09:56;2.40;;;0.70;;
75016;SDS011;63577;39.766;2.720;2023-04-08T01:12:28;3.10;;;0.80;;
75016;SDS011;63577;39.766;2.720;2023-04-08T01:14:56;2.80;;;1.00;;
75016;SDS011;63577;39.766;2.720;2023-04-08T01:17:23;2.70;;;0.80;;
75016;SDS011;63577;39.766;2.720;2023-04-08T01:19:48;20.40;;;2.50;;
75016;SDS011;63577;39.766;2.720;2023-04-08T01:22:18;3.20;;;1.30;;
75016;SDS011;63577;39.766;2.720;2023-04-08T01:24:47;5.30;;;1.00;;
75016;SDS011;63577;39.766;2.720;2023-04-08T01:27:14;5.50;;;0.90;;
75016;SDS011;63577;39.766;2.720;2023-04-08T01:29:40;2.70;;;1.00;;
75016;SDS011;63577;39.766;2.720;2023-04-08T01:32:07;3.80;;;0.90;;
75016;SDS011;63577;39.766;2.720;2023-04-08T01:34:33;2.90;;;1.00;;
75016;SDS011;63577;39.766;2.720;2023-04-08T01:36:59;3.40;;;0.90;;
75016;SDS011;63577;39.766;2.720;2023-04-08T01:39:24;3.10;;;1.20;;
75016;SDS011;63577;39.766;2.720;2023-04-08T01:41:50;4.00;;;1.10;;
75016;SDS011;63577;39.766;2.720;2023-04-08T01:44:17;3.40;;;1.30;;
75016;SDS011;63577;39.766;2.720;2023-04-08T01:46:43;2.90;;;1.30;;
75016;SDS011;63577;39.766;2.720;2023-04-08T01:49:09;2.90;;;1.10;;
75016;SDS011;63577;39.766;2.720;2023-04-08T01:51:35;2.80;;;1.00;;
75016;SDS011;63577;39.766;2.720;2023-04-08T01:54:01;3.30;;;1.10;;
75016;SDS011;63577;39.766;2.720;2023-04-08T01:56:28;2.70;;;0.90;;
75016;SDS011;63577;39.766;2.720;2023-04-08T01:58:53;5.80;;;1.10;;
75016;SDS011;63577;39.766;2.720;2023-04-08T02:01:21;2.80;;;1.00;;
75016;SDS011;63577;39.766;2.720;2023-04-08T02:03:47;2.50;;;0.80;;
75016;SDS011;63577;39.766;2.720;2023-04-08T02:06:16;3.00;;;1.10;;
75016;SDS011;63577;39.766;2.720;2023-04-08T02:08:41;2.90;;;0.90;;
75016;SDS011;63577;39.766;2.720;2023-04-08T02:11:07;3.10;;;0.90;;
75016;SDS011;63577;39.766;2.720;2023-04-08T02:13:32;3.60;;;1.00;;
75016;SDS011;63577;39.766;2.720;2023-04-08T02:16:02;3.30;;;0.80;;
75016;SDS011;63577;39.766;2.720;2023-04-08T02:18:28;2.70;;;1.00;;
75016;SDS011;63577;39.766;2.720;2023-04-08T02:20:56;2.80;;;0.90;;
75016;SDS011;63577;39.766;2.720;2023-04-08T02:23:23;2.40;;;0.80;;
75016;SDS011;63577;39.766;2.720;2023-04-08T02:25:49;4.10;;;1.00;;
75016;SDS011;63577;39.766;2.720;2023-04-08T02:28:17;3.70;;;0.90;;
75016;SDS011;63577;39.766;2.720;2023-04-08T02:30:44;3.30;;;0.80;;
75016;SDS011;63577;39.766;2.720;2023-04-08T02:33:11;4.30;;;0.90;;
75016;SDS011;63577;39.766;2.720;2023-04-08T02:35:37;2.80;;;1.00;;
75016;SDS011;63577;39.766;2.720;2023-04-08T02:38:04;2.80;;;0.90;;
75016;SDS011;63577;39.766;2.720;2023-04-08T02:40:30;3.90;;;0.90;;
75016;SDS011;63577;39.766;2.720;2023-04-08T02:42:56;2.90;;;0.90;;
75016;SDS011;63577;39.766;2.720;2023-04-08T02:45:22;3.00;;;1.00;;
75016;SDS011;63577;39.766;2.720;2023-04-08T02:47:51;3.30;;;1.00;;
75016;SDS011;63577;39.766;2.720;2023-04-08T02:50:16;3.40;;;0.90;;
75016;SDS011;63577;39.766;2.720;2023-04-08T02:52:43;2.70;;;0.80;;
75016;SDS011;63577;39.766;2.720;2023-04-08T02:55:09;5.30;;;1.10;;
75016;SDS011;63577;39.766;2.720;2023-04-08T02:57:35;3.90;;;1.00;;
75016;SDS011;63577;39.766;2.720;2023-04-08T03:00:02;3.60;;;1.00;;
75016;SDS011;63577;39.766;2.720;2023-04-08T03:02:28;3.70;;;1.00;;
75016;SDS011;63577;39.766;2.720;2023-04-08T03:04:53;4.10;;;1.00;;
75016;SDS011;63577;39.766;2.720;2023-04-08T03:07:18;3.20;;;1.10;;
75016;SDS011;63577;39.766;2.720;2023-04-08T03:09:44;3.20;;;0.90;;
75016;SDS011;63577;39.766;2.720;2023-04-08T03:12:09;3.60;;;1.00;;
75016;SDS011;63577;39.766;2.720;2023-04-08T03:14:34;2.90;;;0.90;;
75016;SDS011;63577;39.766;2.720;2023-04-08T03:17:00;3.20;;;0.90;;
75016;SDS011;63577;39.766;2.720;2023-04-08T03:19:25;2.80;;;1.00;;
75016;SDS011;63577;39.766;2.720;2023-04-08T03:21:51;2.80;;;1.10;;
75016;SDS011;63577;39.766;2.720;2023-04-08T03:24:16;2.50;;;0.90;;
75016;SDS011;63577;39.766;2.720;2023-04-08T03:26:41;2.70;;;1.10;;
75016;SDS011;63577;39.766;2.720;2023-04-08T03:29:06;2.60;;;0.90;;
75016;SDS011;63577;39.766;2.720;2023-04-08T03:31:32;2.80;;;1.00;;
75016;SDS011;63577;39.766;2.720;2023-04-08T03:33:58;3.80;;;1.00;;
75016;SDS011;63577;39.766;2.720;2023-04-08T03:36:23;2.90;;;1.10;;
75016;SDS011;63577;39.766;2.720;2023-04-08T03:38:48;4.30;;;1.10;;
75016;SDS011;63577;39.766;2.720;2023-04-08T03:41:14;3.80;;;1.20;;
75016;SDS011;63577;39.766;2.720;2023-04-08T03:43:39;2.60;;;1.00;;
75016;SDS011;63577;39.766;2.720;2023-04-08T03:46:04;3.20;;;1.00;;
75016;SDS011;63577;39.766;2.720;2023-04-08T03:48:30;3.40;;;1.10;;
75016;SDS011;63577;39.766;2.720;2023-04-08T03:50:56;3.30;;;1.10;;
75016;SDS011;63577;39.766;2.720;2023-04-08T03:53:21;3.60;;;1.40;;
75016;SDS011;63577;39.766;2.720;2023-04-08T03:55:47;3.60;;;1.20;;
75016;SDS011;63577;39.766;2.720;2023-04-08T03:58:14;2.70;;;1.20;;
75016;SDS011;63577;39.766;2.720;2023-04-08T04:00:39;4.40;;;1.00;;
75016;SDS011;63577;39.766;2.720;2023-04-08T04:03:05;3.40;;;1.10;;
75016;SDS011;63577;39.766;2.720;2023-04-08T04:05:31;2.80;;;1.10;;
75016;SDS011;63577;39.766;2.720;2023-04-08T04:07:56;2.80;;;0.80;;
75016;SDS011;63577;39.766;2.720;2023-04-08T04:10:22;2.40;;;1.10;;
75016;SDS011;63577;39.766;2.720;2023-04-08T04:12:48;2.90;;;0.80;;
75016;SDS011;63577;39.766;2.720;2023-04-08T04:15:14;2.90;;;0.70;;
75016;SDS011;63577;39.766;2.720;2023-04-08T04:17:39;3.00;;;1.00;;
75016;SDS011;63577;39.766;2.720;2023-04-08T04:20:05;2.40;;;0.80;;
75016;SDS011;63577;39.766;2.720;2023-04-08T04:22:31;3.20;;;0.90;;
75016;SDS011;63577;39.766;2.720;2023-04-08T04:24:56;2.70;;;0.90;;
75016;SDS011;63577;39.766;2.720;2023-04-08T04:27:21;2.50;;;0.80;;
75016;SDS011;63577;39.766;2.720;2023-04-08T04:29:47;2.70;;;0.90;;
75016;SDS011;63577;39.766;2.720;2023-04-08T04:32:12;2.30;;;0.90;;
75016;SDS011;63577;39.766;2.720;2023-04-08T04:34:37;2.50;;;0.80;;
75016;SDS011;63577;39.766;2.720;2023-04-08T04:37:03;2.90;;;0.80;;
75016;SDS011;63577;39.766;2.720;2023-04-08T04:39:28;3.20;;;1.10;;
75016;SDS011;63577;39.766;2.720;2023-04-08T04:41:54;4.60;;;1.00;;
75016;SDS011;63577;39.766;2.720;2023-04-08T04:44:19;3.50;;;1.10;;
75016;SDS011;63577;39.766;2.720;2023-04-08T04:46:44;3.30;;;1.10;;
75016;SDS011;63577;39.766;2.720;2023-04-08T04:49:10;4.00;;;1.10;;
75016;SDS011;63577;39.766;2.720;2023-04-08T04:51:35;2.90;;;1.20;;
75016;SDS011;63577;39.766;2.720;2023-04-08T04:54:00;3.70;;;1.30;;
75016;SDS011;63577;39.766;2.720;2023-04-08T04:56:26;3.30;;;1.40;;
75016;SDS011;63577;39.766;2.720;2023-04-08T04:58:51;3.50;;;1.50;;
75016;SDS011;63577;39.766;2.720;2023-04-08T05:01:17;4.20;;;1.20;;
75016;SDS011;63577;39.766;2.720;2023-04-08T05:03:42;3.70;;;1.10;;
75016;SDS011;63577;39.766;2.720;2023-04-08T05:06:08;3.30;;;1.20;;
75016;SDS011;63577;39.766;2.720;2023-04-08T05:08:33;5.70;;;1.40;;
75016;SDS011;63577;39.766;2.720;2023-04-08T05:10:59;3.10;;;1.20;;
75016;SDS011;63577;39.766;2.720;2023-04-08T05:13:29;4.30;;;1.20;;
75016;SDS011;63577;39.766;2.720;2023-04-08T05:15:56;2.70;;;0.90;;
75016;SDS011;63577;39.766;2.720;2023-04-08T05:18:21;4.40;;;1.20;;
75016;SDS011;63577;39.766;2.720;2023-04-08T05:20:46;3.60;;;1.00;;
75016;SDS011;63577;39.766;2.720;2023-04-08T05:23:12;3.60;;;1.10;;
75016;SDS011;63577;39.766;2.720;2023-04-08T05:25:37;5.70;;;1.20;;
75016;SDS011;63577;39.766;2.720;2023-04-08T05:28:03;3.90;;;1.20;;
75016;SDS011;63577;39.766;2.720;2023-04-08T05:30:28;3.20;;;1.10;;
75016;SDS011;63577;39.766;2.720;2023-04-08T05:32:53;2.60;;;0.90;;
75016;SDS011;63577;39.766;2.720;2023-04-08T05:35:19;3.60;;;0.90;;
75016;SDS011;63577;39.766;2.720;2023-04-08T05:37:44;2.90;;;1.00;;
75016;SDS011;63577;39.766;2.720;2023-04-08T05:40:10;2.40;;;0.70;;
75016;SDS011;63577;39.766;2.720;2023-04-08T05:42:35;4.20;;;1.20;;
75016;SDS011;63577;39.766;2.720;2023-04-08T05:45:00;3.70;;;0.90;;
75016;SDS011;63577;39.766;2.720;2023-04-08T05:47:26;4.60;;;1.40;;
75016;SDS011;63577;39.766;2.720;2023-04-08T05:49:51;3.90;;;1.10;;
75016;SDS011;63577;39.766;2.720;2023-04-08T05:52:17;3.50;;;0.90;;
75016;SDS011;63577;39.766;2.720;2023-04-08T05:54:42;3.00;;;0.90;;
75016;SDS011;63577;39.766;2.720;2023-04-08T05:57:08;5.20;;;2.60;;
75016;SDS011;63577;39.766;2.720;2023-04-08T05:59:33;16.90;;;8.10;;
75016;SDS011;63577;39.766;2.720;2023-04-08T06:01:59;6.30;;;3.00;;
75016;SDS011;63577;39.766;2.720;2023-04-08T06:04:24;3.60;;;1.30;;
75016;SDS011;63577;39.766;2.720;2023-04-08T06:06:50;3.10;;;1.20;;
75016;SDS011;63577;39.766;2.720;2023-04-08T06:09:15;3.90;;;0.90;;
75016;SDS011;63577;39.766;2.720;2023-04-08T06:11:41;4.30;;;1.30;;
75016;SDS011;63577;39.766;2.720;2023-04-08T06:14:06;3.50;;;1.30;;
75016;SDS011;63577;39.766;2.720;2023-04-08T06:16:31;3.10;;;1.10;;
75016;SDS011;63577;39.766;2.720;2023-04-08T06:18:57;3.90;;;1.40;;
75016;SDS011;63577;39.766;2.720;2023-04-08T06:21:22;3.70;;;1.00;;
75016;SDS011;63577;39.766;2.720;2023-04-08T06:23:48;4.40;;;1.60;;
75016;SDS011;63577;39.766;2.720;2023-04-08T06:26:13;4.40;;;1.80;;
75016;SDS011;63577;39.766;2.720;2023-04-08T06:28:38;4.70;;;2.60;;
75016;SDS011;63577;39.766;2.720;2023-04-08T06:31:04;7.50;;;3.50;;
75016;SDS011;63577;39.766;2.720;2023-04-08T06:33:30;5.10;;;2.70;;
75016;SDS011;63577;39.766;2.720;2023-04-08T06:36:05;4.60;;;2.30;;
75016;SDS011;63577;39.766;2.720;2023-04-08T06:38:31;5.70;;;2.90;;
75016;SDS011;63577;39.766;2.720;2023-04-08T06:41:03;7.50;;;2.80;;
75016;SDS011;63577;39.766;2.720;2023-04-08T06:43:29;7.40;;;2.60;;
75016;SDS011;63577;39.766;2.720;2023-04-08T06:45:55;6.90;;;2.70;;
75016;SDS011;63577;39.766;2.720;2023-04-08T06:48:20;10.10;;;3.40;;
75016;SDS011;63577;39.766;2.720;2023-04-08T06:50:47;6.60;;;3.40;;
75016;SDS011;63577;39.766;2.720;2023-04-08T06:53:13;6.30;;;3.40;;
75016;SDS011;63577;39.766;2.720;2023-04-08T06:55:38;6.60;;;3.20;;
75016;SDS011;63577;39.766;2.720;2023-04-08T06:58:03;6.90;;;3.50;;
75016;SDS011;63577;39.766;2.720;2023-04-08T07:00:29;10.70;;;3.20;;
75016;SDS011;63577;39.766;2.720;2023-04-08T07:02:54;5.60;;;3.10;;
75016;SDS011;63577;39.766;2.720;2023-04-08T07:05:19;5.70;;;2.70;;
75016;SDS011;63577;39.766;2.720;2023-04-08T07:07:45;5.30;;;2.70;;
75016;SDS011;63577;39.766;2.720;2023-04-08T07:10:11;6.40;;;2.70;;
75016;SDS011;63577;39.766;2.720;2023-04-08T07:12:37;5.30;;;2.80;;
75016;SDS011;63577;39.766;2.720;2023-04-08T07:15:02;5.50;;;2.50;;
75016;SDS011;63577;39.766;2.720;2023-04-08T07:17:28;4.60;;;2.20;;
75016;SDS011;63577;39.766;2.720;2023-04-08T07:19:53;3.70;;;1.50;;
75016;SDS011;63577;39.766;2.720;2023-04-08T07:22:18;4.60;;;1.50;;
75016;SDS011;63577;39.766;2.720;2023-04-08T07:24:44;3.50;;;1.40;;
75016;SDS011;63577;39.766;2.720;2023-04-08T07:27:14;5.60;;;2.50;;
75016;SDS011;63577;39.766;2.720;2023-04-08T07:29:40;14.50;;;7.90;;
75016;SDS011;63577;39.766;2.720;2023-04-08T07:32:05;15.70;;;7.20;;
75016;SDS011;63577;39.766;2.720;2023-04-08T07:34:33;20.00;;;7.50;;
75016;SDS011;63577;39.766;2.720;2023-04-08T07:36:58;14.00;;;4.70;;
75016;SDS011;63577;39.766;2.720;2023-04-08T07:39:23;18.00;;;4.80;;
75016;SDS011;63577;39.766;2.720;2023-04-08T07:41:49;13.10;;;5.00;;
75016;SDS011;63577;39.766;2.720;2023-04-08T07:44:14;10.60;;;5.40;;
75016;SDS011;63577;39.766;2.720;2023-04-08T07:46:41;13.30;;;7.20;;
75016;SDS011;63577;39.766;2.720;2023-04-08T07:49:06;12.30;;;6.60;;
75016;SDS011;63577;39.766;2.720;2023-04-08T07:51:32;9.10;;;4.20;;
75016;SDS011;63577;39.766;2.720;2023-04-08T07:53:58;8.70;;;3.10;;
75016;SDS011;63577;39.766;2.720;2023-04-08T07:56:23;11.50;;;6.20;;
75016;SDS011;63577;39.766;2.720;2023-04-08T07:58:49;15.80;;;7.90;;
75016;SDS011;63577;39.766;2.720;2023-04-08T08:01:15;11.80;;;6.50;;
75016;SDS011;63577;39.766;2.720;2023-04-08T08:03:42;12.70;;;5.60;;
75016;SDS011;63577;39.766;2.720;2023-04-08T08:06:07;11.70;;;5.60;;
75016;SDS011;63577;39.766;2.720;2023-04-08T08:08:32;10.90;;;5.60;;
75016;SDS011;63577;39.766;2.720;2023-04-08T08:11:00;14.00;;;6.60;;
75016;SDS011;63577;39.766;2.720;2023-04-08T08:13:25;13.10;;;7.30;;
75016;SDS011;63577;39.766;2.720;2023-04-08T08:15:51;10.90;;;5.70;;
75016;SDS011;63577;39.766;2.720;2023-04-08T08:18:17;8.60;;;4.80;;
75016;SDS011;63577;39.766;2.720;2023-04-08T08:20:42;6.60;;;3.30;;
75016;SDS011;63577;39.766;2.720;2023-04-08T08:23:08;7.00;;;3.20;;
75016;SDS011;63577;39.766;2.720;2023-04-08T08:25:33;4.90;;;1.90;;
75016;SDS011;63577;39.766;2.720;2023-04-08T08:27:58;5.80;;;2.10;;
75016;SDS011;63577;39.766;2.720;2023-04-08T08:30:24;5.60;;;2.20;;
75016;SDS011;63577;39.766;2.720;2023-04-08T08:32:50;6.80;;;2.40;;
75016;SDS011;63577;39.766;2.720;2023-04-08T08:35:16;4.80;;;2.10;;
75016;SDS011;63577;39.766;2.720;2023-04-08T08:37:41;4.70;;;1.90;;
75016;SDS011;63577;39.766;2.720;2023-04-08T08:40:07;4.10;;;1.70;;
75016;SDS011;63577;39.766;2.720;2023-04-08T08:42:32;4.50;;;1.50;;
75016;SDS011;63577;39.766;2.720;2023-04-08T08:45:00;4.40;;;1.40;;
75016;SDS011;63577;39.766;2.720;2023-04-08T08:47:26;3.50;;;1.20;;
75016;SDS011;63577;39.766;2.720;2023-04-08T08:49:51;3.20;;;0.90;;
75016;SDS011;63577;39.766;2.720;2023-04-08T08:52:16;3.80;;;1.30;;
75016;SDS011;63577;39.766;2.720;2023-04-08T08:54:43;3.70;;;1.50;;
75016;SDS011;63577;39.766;2.720;2023-04-08T08:57:15;5.80;;;2.10;;
75016;SDS011;63577;39.766;2.720;2023-04-08T08:59:41;6.70;;;1.90;;
75016;SDS011;63577;39.766;2.720;2023-04-08T09:02:22;3.60;;;1.70;;
75016;SDS011;63577;39.766;2.720;2023-04-08T09:07:23;12.20;;;6.60;;
75016;SDS011;63577;39.766;2.720;2023-04-08T09:09:50;9.70;;;5.30;;
75016;SDS011;63577;39.766;2.720;2023-04-08T09:12:15;8.80;;;4.10;;
75016;SDS011;63577;39.766;2.720;2023-04-08T09:14:41;9.50;;;4.60;;
75016;SDS011;63577;39.766;2.720;2023-04-08T09:17:06;9.00;;;4.30;;
75016;SDS011;63577;39.766;2.720;2023-04-08T09:19:32;6.40;;;3.60;;
75016;SDS011;63577;39.766;2.720;2023-04-08T09:22:04;4.60;;;1.90;;
75016;SDS011;63577;39.766;2.720;2023-04-08T09:24:31;4.80;;;2.20;;
75016;SDS011;63577;39.766;2.720;2023-04-08T09:26:56;4.40;;;1.70;;
75016;SDS011;63577;39.766;2.720;2023-04-08T09:29:22;4.80;;;1.30;;
75016;SDS011;63577;39.766;2.720;2023-04-08T09:31:48;3.90;;;1.40;;
75016;SDS011;63577;39.766;2.720;2023-04-08T09:34:17;3.70;;;1.30;;
75016;SDS011;63577;39.766;2.720;2023-04-08T09:36:47;3.40;;;1.20;;
75016;SDS011;63577;39.766;2.720;2023-04-08T09:39:16;5.60;;;2.30;;
75016;SDS011;63577;39.766;2.720;2023-04-08T09:41:41;2.80;;;1.10;;
75016;SDS011;63577;39.766;2.720;2023-04-08T09:44:08;4.60;;;1.40;;
75016;SDS011;63577;39.766;2.720;2023-04-08T09:54:51;5.70;;;2.10;;
75016;SDS011;63577;39.766;2.720;2023-04-08T10:05:23;4.00;;;0.90;;
75016;SDS011;63577;39.766;2.720;2023-04-08T10:07:49;3.10;;;1.20;;
75016;SDS011;63577;39.766;2.720;2023-04-08T10:10:15;2.80;;;1.10;;
75016;SDS011;63577;39.766;2.720;2023-04-08T10:12:40;3.30;;;0.90;;
75016;SDS011;63577;39.766;2.720;2023-04-08T10:17:51;3.30;;;1.10;;
75016;SDS011;63577;39.766;2.720;2023-04-08T10:23:00;3.50;;;1.30;;
75016;SDS011;63577;39.766;2.720;2023-04-08T10:25:33;5.20;;;1.20;;
75016;SDS011;63577;39.766;2.720;2023-04-08T10:27:59;4.40;;;1.30;;
75016;SDS011;63577;39.766;2.720;2023-04-08T10:32:56;4.80;;;1.60;;
75016;SDS011;63577;39.766;2.720;2023-04-08T10:35:36;4.80;;;1.30;;
75016;SDS011;63577;39.766;2.720;2023-04-08T10:38:05;5.40;;;1.70;;
75016;SDS011;63577;39.766;2.720;2023-04-08T10:40:35;5.20;;;1.80;;
75016;SDS011;63577;39.766;2.720;2023-04-08T10:43:03;6.40;;;1.70;;
75016;SDS011;63577;39.766;2.720;2023-04-08T10:45:32;4.80;;;1.70;;
75016;SDS011;63577;39.766;2.720;2023-04-08T10:48:17;5.20;;;1.80;;
75016;SDS011;63577;39.766;2.720;2023-04-08T10:50:55;4.30;;;1.50;;
75016;SDS011;63577;39.766;2.720;2023-04-08T10:53:27;3.90;;;1.10;;
75016;SDS011;63577;39.766;2.720;2023-04-08T10:55:53;5.10;;;1.30;;
75016;SDS011;63577;39.766;2.720;2023-04-08T10:58:19;4.00;;;1.40;;
75016;SDS011;63577;39.766;2.720;2023-04-08T11:00:45;4.20;;;1.30;;
75016;SDS011;63577;39.766;2.720;2023-04-08T11:03:10;5.30;;;1.40;;
75016;SDS011;63577;39.766;2.720;2023-04-08T11:05:36;5.20;;;1.20;;
75016;SDS011;63577;39.766;2.720;2023-04-08T11:08:03;4.40;;;1.30;;
75016;SDS011;63577;39.766;2.720;2023-04-08T11:10:28;4.60;;;1.30;;
75016;SDS011;63577;39.766;2.720;2023-04-08T11:12:54;5.30;;;1.30;;
75016;SDS011;63577;39.766;2.720;2023-04-08T11:15:20;4.40;;;1.40;;
75016;SDS011;63577;39.766;2.720;2023-04-08T11:17:46;6.00;;;1.60;;
75016;SDS011;63577;39.766;2.720;2023-04-08T11:20:12;5.80;;;1.50;;
75016;SDS011;63577;39.766;2.720;2023-04-08T11:22:38;5.60;;;1.40;;
75016;SDS011;63577;39.766;2.720;2023-04-08T11:25:03;4.40;;;1.40;;
75016;SDS011;63577;39.766;2.720;2023-04-08T11:27:32;4.60;;;1.10;;
75016;SDS011;63577;39.766;2.720;2023-04-08T11:29:57;4.40;;;1.20;;
75016;SDS011;63577;39.766;2.720;2023-04-08T11:32:23;4.00;;;1.50;;
75016;SDS011;63577;39.766;2.720;2023-04-08T11:34:49;4.50;;;1.30;;
75016;SDS011;63577;39.766;2.720;2023-04-08T11:37:15;5.10;;;1.50;;
75016;SDS011;63577;39.766;2.720;2023-04-08T11:39:44;5.10;;;1.40;;
75016;SDS011;63577;39.766;2.720;2023-04-08T11:42:26;4.90;;;1.30;;
75016;SDS011;63577;39.766;2.720;2023-04-08T11:44:51;5.50;;;1.40;;
75016;SDS011;63577;39.766;2.720;2023-04-08T11:47:17;4.60;;;1.40;;
75016;SDS011;63577;39.766;2.720;2023-04-08T11:49:43;4.40;;;1.20;;
75016;SDS011;63577;39.766;2.720;2023-04-08T11:52:08;4.60;;;1.30;;
75016;SDS011;63577;39.766;2.720;2023-04-08T11:54:39;4.50;;;1.40;;
75016;SDS011;63577;39.766;2.720;2023-04-08T11:57:05;5.30;;;1.40;;
75016;SDS011;63577;39.766;2.720;2023-04-08T11:59:30;4.50;;;1.40;;
75016;SDS011;63577;39.766;2.720;2023-04-08T12:01:55;5.40;;;1.10;;
75016;SDS011;63577;39.766;2.720;2023-04-08T12:04:21;4.30;;;1.10;;
75016;SDS011;63577;39.766;2.720;2023-04-08T12:06:46;3.50;;;1.10;;
75016;SDS011;63577;39.766;2.720;2023-04-08T12:09:12;5.00;;;1.40;;
75016;SDS011;63577;39.766;2.720;2023-04-08T12:11:37;4.10;;;1.20;;
75016;SDS011;63577;39.766;2.720;2023-04-08T12:14:03;3.50;;;1.10;;
75016;SDS011;63577;39.766;2.720;2023-04-08T12:16:28;5.10;;;1.10;;
75016;SDS011;63577;39.766;2.720;2023-04-08T12:18:54;4.90;;;1.20;;
75016;SDS011;63577;39.766;2.720;2023-04-08T12:21:20;5.80;;;1.40;;
75016;SDS011;63577;39.766;2.720;2023-04-08T12:23:45;5.50;;;1.40;;
75016;SDS011;63577;39.766;2.720;2023-04-08T12:26:11;5.30;;;1.20;;
75016;SDS011;63577;39.766;2.720;2023-04-08T12:28:37;4.90;;;1.30;;
75016;SDS011;63577;39.766;2.720;2023-04-08T12:31:03;5.30;;;1.20;;
75016;SDS011;63577;39.766;2.720;2023-04-08T12:33:28;4.00;;;1.00;;
75016;SDS011;63577;39.766;2.720;2023-04-08T12:35:54;5.00;;;1.30;;
75016;SDS011;63577;39.766;2.720;2023-04-08T12:38:22;6.20;;;1.50;;
75016;SDS011;63577;39.766;2.720;2023-04-08T12:40:47;4.80;;;1.20;;
75016;SDS011;63577;39.766;2.720;2023-04-08T12:43:12;7.60;;;1.40;;
75016;SDS011;63577;39.766;2.720;2023-04-08T12:45:38;3.90;;;1.10;;
75016;SDS011;63577;39.766;2.720;2023-04-08T12:48:03;5.30;;;1.40;;
75016;SDS011;63577;39.766;2.720;2023-04-08T12:50:29;5.30;;;1.30;;
75016;SDS011;63577;39.766;2.720;2023-04-08T12:52:54;4.20;;;1.10;;
75016;SDS011;63577;39.766;2.720;2023-04-08T12:55:20;7.10;;;1.60;;
75016;SDS011;63577;39.766;2.720;2023-04-08T12:57:49;4.80;;;1.50;;
75016;SDS011;63577;39.766;2.720;2023-04-08T13:00:15;5.60;;;1.30;;
75016;SDS011;63577;39.766;2.720;2023-04-08T13:02:40;5.70;;;1.30;;
75016;SDS011;63577;39.766;2.720;2023-04-08T13:05:06;5.30;;;1.50;;
75016;SDS011;63577;39.766;2.720;2023-04-08T13:07:32;6.60;;;1.30;;
75016;SDS011;63577;39.766;2.720;2023-04-08T13:09:57;4.60;;;1.40;;
75016;SDS011;63577;39.766;2.720;2023-04-08T13:12:23;6.80;;;1.40;;
75016;SDS011;63577;39.766;2.720;2023-04-08T13:14:48;7.60;;;1.70;;
75016;SDS011;63577;39.766;2.720;2023-04-08T13:17:13;5.40;;;1.10;;
75016;SDS011;63577;39.766;2.720;2023-04-08T13:19:39;4.90;;;1.30;;
75016;SDS011;63577;39.766;2.720;2023-04-08T13:22:04;4.20;;;1.30;;
75016;SDS011;63577;39.766;2.720;2023-04-08T13:24:29;5.40;;;1.30;;
75016;SDS011;63577;39.766;2.720;2023-04-08T13:26:55;6.70;;;1.50;;
75016;SDS011;63577;39.766;2.720;2023-04-08T13:29:21;3.20;;;1.30;;
75016;SDS011;63577;39.766;2.720;2023-04-08T13:31:46;3.80;;;1.20;;
75016;SDS011;63577;39.766;2.720;2023-04-08T13:34:12;4.10;;;1.10;;
75016;SDS011;63577;39.766;2.720;2023-04-08T13:36:37;4.00;;;1.20;;
75016;SDS011;63577;39.766;2.720;2023-04-08T13:39:03;6.20;;;1.40;;
75016;SDS011;63577;39.766;2.720;2023-04-08T13:41:28;4.10;;;1.00;;
75016;SDS011;63577;39.766;2.720;2023-04-08T13:43:54;4.90;;;1.10;;
75016;SDS011;63577;39.766;2.720;2023-04-08T13:46:20;3.40;;;1.10;;
75016;SDS011;63577;39.766;2.720;2023-04-08T13:48:46;4.30;;;1.00;;
75016;SDS011;63577;39.766;2.720;2023-04-08T13:51:11;5.20;;;1.30;;
75016;SDS011;63577;39.766;2.720;2023-04-08T13:53:36;4.60;;;1.30;;
75016;SDS011;63577;39.766;2.720;2023-04-08T13:56:01;4.00;;;1.20;;
75016;SDS011;63577;39.766;2.720;2023-04-08T13:58:27;4.80;;;1.30;;
75016;SDS011;63577;39.766;2.720;2023-04-08T14:00:52;3.60;;;1.30;;
75016;SDS011;63577;39.766;2.720;2023-04-08T14:03:18;5.70;;;1.20;;
75016;SDS011;63577;39.766;2.720;2023-04-08T14:05:43;5.00;;;1.30;;
75016;SDS011;63577;39.766;2.720;2023-04-08T14:08:09;6.00;;;1.40;;
75016;SDS011;63577;39.766;2.720;2023-04-08T14:10:36;6.50;;;1.40;;
75016;SDS011;63577;39.766;2.720;2023-04-08T14:13:01;3.70;;;1.20;;
75016;SDS011;63577;39.766;2.720;2023-04-08T14:15:26;5.50;;;1.40;;
75016;SDS011;63577;39.766;2.720;2023-04-08T14:17:52;5.30;;;1.50;;
75016;SDS011;63577;39.766;2.720;2023-04-08T14:20:17;6.60;;;1.30;;
75016;SDS011;63577;39.766;2.720;2023-04-08T14:22:42;4.60;;;1.40;;
75016;SDS011;63577;39.766;2.720;2023-04-08T14:25:08;6.70;;;1.30;;
75016;SDS011;63577;39.766;2.720;2023-04-08T14:27:33;4.30;;;1.00;;
75016;SDS011;63577;39.766;2.720;2023-04-08T14:29:59;4.50;;;1.30;;
75016;SDS011;63577;39.766;2.720;2023-04-08T14:32:24;4.80;;;1.20;;
75016;SDS011;63577;39.766;2.720;2023-04-08T14:34:49;5.40;;;1.40;;
75016;SDS011;63577;39.766;2.720;2023-04-08T14:37:15;5.70;;;1.20;;
75016;SDS011;63577;39.766;2.720;2023-04-08T14:39:42;5.60;;;1.40;;
75016;SDS011;63577;39.766;2.720;2023-04-08T14:42:07;4.90;;;1.20;;
75016;SDS011;63577;39.766;2.720;2023-04-08T14:44:33;3.80;;;1.20;;
75016;SDS011;63577;39.766;2.720;2023-04-08T14:46:58;5.80;;;1.20;;
75016;SDS011;63577;39.766;2.720;2023-04-08T14:49:23;5.40;;;1.50;;
75016;SDS011;63577;39.766;2.720;2023-04-08T14:51:49;4.50;;;1.20;;
75016;SDS011;63577;39.766;2.720;2023-04-08T14:54:14;4.80;;;1.40;;
75016;SDS011;63577;39.766;2.720;2023-04-08T14:56:40;6.10;;;1.40;;
75016;SDS011;63577;39.766;2.720;2023-04-08T14:59:06;4.30;;;1.20;;
75016;SDS011;63577;39.766;2.720;2023-04-08T15:01:31;5.80;;;1.60;;
75016;SDS011;63577;39.766;2.720;2023-04-08T15:03:57;5.20;;;1.40;;
75016;SDS011;63577;39.766;2.720;2023-04-08T15:06:23;4.60;;;1.10;;
75016;SDS011;63577;39.766;2.720;2023-04-08T15:08:49;4.80;;;1.30;;
75016;SDS011;63577;39.766;2.720;2023-04-08T15:11:14;5.90;;;1.70;;